Time;durP1;ratioP1;P1;durP2;ratioP2;P2;SDS_P1;SDS_P2;PMS_P1;PMS_P2;Temp;Humidity;BMP_temperature;BMP_pressure;BME280_temperature;BME280_humidity;BME280_pressure;Samples;Min_cycle;Max_cycle;Signal;HPM_P1;HPM_P2
2023/10/28 00:02:02;;;;;;;3.90;1.20;;;;;;;12.86;66.01;97831.84;4493498;31;31910;-86
2023/10/28 00:04:31;;;;;;;2.92;1.00;;;;;;;12.70;66.76;97836.47;4493662;31;33719;-87
2023/10/28 00:06:59;;;;;;;2.70;1.12;;;;;;;13.00;65.88;97835.06;4496112;31;33797;-85
2023/10/28 00:09:27;;;;;;;2.70;1.10;;;;;;;13.31;64.81;97839.72;4510631;31;34286;-85
2023/10/28 00:11:55;;;;;;;2.65;0.90;;;;;;;12.50;67.46;97838.50;4510546;31;33415;-85
2023/10/28 00:14:23;;;;;;;4.03;1.20;;;;;;;12.82;66.65;97838.84;4497813;31;33684;-87
2023/10/28 00:16:50;;;;;;;3.33;1.08;;;;;;;12.95;66.16;97841.22;4486308;31;33386;-85
2023/10/28 00:19:19;;;;;;;3.05;1.50;;;;;;;13.08;66.19;97846.19;4509129;31;33690;-85
2023/10/28 00:21:47;;;;;;;3.75;0.98;;;;;;;13.02;66.81;97841.09;4510517;31;33212;-86
2023/10/28 00:24:14;;;;;;;1.70;0.73;;;;;;;13.06;66.64;97850.53;4498724;31;33815;-86
2023/10/28 00:26:42;;;;;;;2.72;1.12;;;;;;;13.00;66.02;97855.88;4493408;31;34184;-86
2023/10/28 00:29:11;;;;;;;2.50;0.90;;;;;;;13.27;65.63;97853.69;4489787;31;34559;-85
2023/10/28 00:31:39;;;;;;;2.08;0.80;;;;;;;12.91;67.06;97846.47;4493656;31;32263;-85
2023/10/28 00:34:08;;;;;;;3.47;1.00;;;;;;;13.08;65.44;97847.94;4493999;31;33493;-87
2023/10/28 00:36:36;;;;;;;3.53;0.93;;;;;;;12.83;66.78;97842.28;4507386;31;34071;-86
2023/10/28 00:39:03;;;;;;;5.25;0.90;;;;;;;13.00;66.32;97839.41;4508926;31;33746;-85
2023/10/28 00:41:32;;;;;;;3.80;0.90;;;;;;;13.12;65.85;97840.03;4510200;31;33406;-86
2023/10/28 00:43:59;;;;;;;3.87;1.00;;;;;;;13.21;66.21;97845.94;4510003;31;33915;-84
2023/10/28 00:46:28;;;;;;;4.62;1.10;;;;;;;13.37;64.86;97844.78;4509151;31;34155;-86
2023/10/28 00:48:56;;;;;;;4.55;0.80;;;;;;;13.25;65.71;97856.28;4509957;31;33680;-86
2023/10/28 00:51:23;;;;;;;3.45;1.15;;;;;;;12.87;65.58;97847.41;4499142;31;33288;-84
2023/10/28 00:53:51;;;;;;;4.95;1.08;;;;;;;12.96;67.07;97851.63;4509916;31;34044;-84
2023/10/28 00:56:19;;;;;;;2.45;0.80;;;;;;;13.11;65.25;97853.94;4508915;31;33697;-83
2023/10/28 00:58:47;;;;;;;2.85;0.82;;;;;;;13.36;64.37;97863.91;4509211;31;33705;-87
2023/10/28 01:01:14;;;;;;;3.35;0.80;;;;;;;13.39;64.30;97869.06;4497489;31;33039;-86
2023/10/28 01:03:42;;;;;;;5.12;1.10;;;;;;;13.20;64.52;97873.72;4499289;31;34666;-85
2023/10/28 01:06:10;;;;;;;3.42;0.90;;;;;;;13.22;65.37;97882.37;4499696;31;34163;-88
2023/10/28 01:08:38;;;;;;;2.33;0.90;;;;;;;13.03;65.51;97875.75;4484566;31;34622;-86
2023/10/28 01:11:06;;;;;;;2.30;0.82;;;;;;;12.92;65.54;97873.38;4481326;31;32033;-87
2023/10/28 01:13:34;;;;;;;2.78;0.98;;;;;;;12.94;65.53;97865.53;4499628;31;34046;-87
2023/10/28 01:16:01;;;;;;;2.55;0.98;;;;;;;12.97;65.54;97875.88;4498318;31;34199;-87
2023/10/28 01:18:29;;;;;;;4.70;1.10;;;;;;;12.88;65.52;97869.97;4499163;31;33843;-85
2023/10/28 01:20:57;;;;;;;4.12;0.90;;;;;;;13.08;64.77;97869.59;4499015;31;34228;-87
2023/10/28 01:23:24;;;;;;;2.97;1.17;;;;;;;13.07;64.83;97877.44;4496933;31;33272;-87
2023/10/28 01:25:55;;;;;;;4.78;1.00;;;;;;;13.21;63.99;97869.38;4498068;31;33618;-86
2023/10/28 01:28:23;;;;;;;2.40;0.95;;;;;;;12.88;65.29;97876.91;4491466;31;33705;-87
2023/10/28 01:30:52;;;;;;;6.80;1.40;;;;;;;13.02;65.28;97874.91;4497963;31;33822;-87
2023/10/28 01:33:21;;;;;;;3.60;0.98;;;;;;;12.88;66.66;97877.75;4498005;31;34525;-87
2023/10/28 01:35:48;;;;;;;5.37;1.17;;;;;;;12.87;66.46;97872.56;4499268;31;34921;-86
2023/10/28 01:38:16;;;;;;;3.92;1.00;;;;;;;12.90;66.03;97875.97;4477799;32;31768;-88
2023/10/28 01:40:44;;;;;;;3.00;1.00;;;;;;;12.96;66.27;97875.03;4488578;31;33630;-86
2023/10/28 01:43:11;;;;;;;2.22;0.88;;;;;;;13.14;65.50;97877.31;4491498;31;33890;-87
2023/10/28 01:45:40;;;;;;;3.53;1.25;;;;;;;13.13;65.80;97877.31;4491197;31;33864;-87
2023/10/28 01:48:07;;;;;;;2.78;0.90;;;;;;;13.18;66.56;97872.88;4484649;31;33445;-87
2023/10/28 01:50:35;;;;;;;4.50;1.10;;;;;;;13.14;66.71;97877.31;4499051;31;32991;-87
2023/10/28 01:53:03;;;;;;;3.92;0.95;;;;;;;13.11;67.18;97890.37;4494615;31;33228;-87
2023/10/28 01:55:32;;;;;;;4.78;1.30;;;;;;;13.09;67.26;97891.28;4490202;31;34861;-87
2023/10/28 01:58:00;;;;;;;3.55;1.15;;;;;;;13.05;67.76;97894.81;4493951;31;33298;-87
2023/10/28 02:00:30;;;;;;;3.80;1.27;;;;;;;13.13;67.37;97912.00;4488871;31;33144;-86
2023/10/28 02:03:00;;;;;;;2.78;0.73;;;;;;;13.12;67.15;97917.25;4482257;32;34541;-87
2023/10/28 02:05:29;;;;;;;3.47;1.15;;;;;;;13.24;66.63;97919.66;4471780;31;34544;-86
2023/10/28 02:07:57;;;;;;;2.80;1.05;;;;;;;13.28;66.45;97913.50;4496900;31;33694;-87
2023/10/28 02:10:26;;;;;;;2.35;0.98;;;;;;;13.37;65.53;97912.47;4484185;31;32844;-87
2023/10/28 02:12:53;;;;;;;3.28;1.05;;;;;;;13.35;65.72;97916.88;4497194;31;33832;-87
2023/10/28 02:15:21;;;;;;;3.50;1.02;;;;;;;13.30;65.85;97918.69;4497702;31;33028;-87
2023/10/28 02:17:48;;;;;;;2.53;0.85;;;;;;;13.23;65.93;97923.16;4497066;31;33716;-87
2023/10/28 02:20:16;;;;;;;3.97;1.30;;;;;;;13.40;65.54;97922.81;4484655;31;31969;-87
2023/10/28 02:22:44;;;;;;;3.85;1.50;;;;;;;13.36;65.55;97921.16;4484919;31;34077;-87
2023/10/28 02:25:14;;;;;;;2.70;1.15;;;;;;;13.25;65.82;97912.69;4496847;31;34028;-87
2023/10/28 02:27:41;;;;;;;4.95;1.12;;;;;;;13.18;66.14;97917.12;4498759;31;33660;-87
2023/10/28 02:30:10;;;;;;;4.82;1.10;;;;;;;13.10;65.83;97927.66;4497719;31;32829;-87
2023/10/28 02:32:37;;;;;;;3.37;1.05;;;;;;;13.00;66.11;97930.47;4484437;31;33799;-88
2023/10/28 02:35:05;;;;;;;3.20;1.10;;;;;;;13.09;65.86;97938.97;4483176;31;33108;-87
2023/10/28 02:37:33;;;;;;;5.93;1.55;;;;;;;12.95;66.19;97935.72;4483254;32;34356;-87
2023/10/28 02:40:01;;;;;;;3.10;1.17;;;;;;;12.98;66.21;97932.22;4481496;31;34103;-86
2023/10/28 02:42:28;;;;;;;4.37;1.15;;;;;;;12.96;66.12;97924.47;4482847;31;33207;-87
2023/10/28 02:44:56;;;;;;;2.22;1.02;;;;;;;12.95;66.33;97919.25;4494508;31;34036;-86
2023/10/28 02:47:23;;;;;;;5.12;1.00;;;;;;;12.98;66.21;97924.41;4497795;31;33830;-87
2023/10/28 02:49:51;;;;;;;4.50;1.20;;;;;;;12.87;66.59;97914.19;4483512;31;34163;-85
2023/10/28 02:52:19;;;;;;;3.67;1.35;;;;;;;12.92;66.59;97920.19;4493506;31;33987;-86
2023/10/28 02:54:46;;;;;;;3.80;1.08;;;;;;;12.74;67.13;97916.12;4498382;31;34810;-87
2023/10/28 02:57:13;;;;;;;6.22;1.10;;;;;;;12.78;67.10;97911.75;4497797;31;33388;-87
2023/10/28 02:59:41;;;;;;;3.30;1.17;;;;;;;12.82;67.58;97918.63;4484635;31;33084;-87
2023/10/28 03:02:09;;;;;;;4.40;1.00;;;;;;;12.85;67.57;97913.37;4491945;31;33516;-87
2023/10/28 03:04:36;;;;;;;6.43;1.75;;;;;;;12.89;67.87;97915.88;4481735;32;33823;-88
2023/10/28 03:07:04;;;;;;;3.08;1.08;;;;;;;12.86;67.81;97910.72;4482815;31;33212;-85
2023/10/28 03:09:32;;;;;;;5.78;1.65;;;;;;;12.87;67.68;97908.97;4497677;31;32707;-87
2023/10/28 03:11:59;;;;;;;6.82;1.70;;;;;;;12.88;67.83;97914.19;4498521;31;33947;-87
2023/10/28 03:14:27;;;;;;;3.40;1.10;;;;;;;12.79;68.23;97913.47;4498683;31;33769;-86
2023/10/28 03:16:54;;;;;;;3.67;1.20;;;;;;;12.79;68.55;97919.50;4497357;31;33649;-87
2023/10/28 03:19:22;;;;;;;3.12;1.27;;;;;;;12.79;68.70;97929.06;4498042;31;34000;-86
2023/10/28 03:21:50;;;;;;;5.30;1.00;;;;;;;12.86;68.67;97928.94;4485916;31;33664;-86
2023/10/28 03:24:17;;;;;;;3.75;1.25;;;;;;;12.83;68.80;97933.31;4468123;32;35095;-86
2023/10/28 03:26:45;;;;;;;3.70;1.30;;;;;;;12.91;68.44;97934.91;4482784;32;33762;-86
2023/10/28 03:29:12;;;;;;;2.20;1.00;;;;;;;12.82;68.63;97932.47;4483136;31;33179;-86
2023/10/28 03:31:40;;;;;;;2.40;1.10;;;;;;;12.95;68.40;97930.53;4498140;31;33440;-88
2023/10/28 03:34:07;;;;;;;3.08;1.10;;;;;;;12.91;68.55;97936.66;4484668;31;34907;-87
2023/10/28 03:36:35;;;;;;;3.28;1.37;;;;;;;12.99;68.19;97928.72;4496755;31;33395;-88
2023/10/28 03:39:03;;;;;;;5.82;1.58;;;;;;;13.00;67.75;97935.69;4498515;31;32929;-88
2023/10/28 03:41:32;;;;;;;5.40;1.20;;;;;;;12.89;68.07;97943.66;4475952;31;34614;-87
2023/10/28 03:44:01;;;;;;;4.60;1.20;;;;;;;12.97;67.72;97944.38;4497035;31;33437;-87
2023/10/28 03:46:28;;;;;;;3.87;1.23;;;;;;;13.06;67.25;97944.22;4497541;31;33430;-88
2023/10/28 03:48:56;;;;;;;3.97;1.15;;;;;;;12.84;67.91;97948.03;4483380;31;32935;-87
2023/10/28 03:51:23;;;;;;;5.18;1.27;;;;;;;13.00;67.50;97953.88;4495622;31;33908;-88
2023/10/28 03:53:51;;;;;;;5.00;1.40;;;;;;;12.93;67.78;97947.06;4494669;31;34826;-86
2023/10/28 03:56:18;;;;;;;4.97;2.30;;;;;;;13.01;67.25;97951.25;4497606;31;33837;-87
2023/10/28 03:58:46;;;;;;;5.53;1.65;;;;;;;13.06;66.48;97949.41;4498165;31;34063;-86
2023/10/28 04:01:15;;;;;;;4.60;1.58;;;;;;;12.91;66.98;97954.88;4495609;31;33969;-87
2023/10/28 04:03:43;;;;;;;347.85;253.32;;;;;;;12.98;66.58;97950.44;4488176;31;35520;-87
2023/10/28 04:06:11;;;;;;;33.40;28.40;;;;;;;12.89;66.31;97954.91;4493021;31;33389;-86
2023/10/28 04:08:39;;;;;;;21.42;15.93;;;;;;;12.78;66.76;97966.37;4496303;31;32157;-87
2023/10/28 04:11:09;;;;;;;8.55;4.32;;;;;;;12.85;66.25;97955.84;4496503;31;33610;-87
2023/10/28 04:13:36;;;;;;;5.60;2.50;;;;;;;12.77;66.18;97962.91;4497540;31;34102;-88
2023/10/28 04:16:04;;;;;;;7.95;2.00;;;;;;;12.76;65.70;97960.31;4497553;31;33954;-87
2023/10/28 04:18:31;;;;;;;5.85;1.50;;;;;;;12.82;65.57;97949.81;4482628;31;32466;-88
2023/10/28 04:20:59;;;;;;;3.72;1.60;;;;;;;12.83;64.98;97951.53;4480702;32;32423;-87
2023/10/28 04:23:26;;;;;;;4.10;1.25;;;;;;;12.52;65.90;97952.00;4454734;32;33288;-88
2023/10/28 04:25:54;;;;;;;4.65;1.10;;;;;;;12.46;66.32;97959.03;4495741;31;34400;-87
2023/10/28 04:28:22;;;;;;;5.50;1.48;;;;;;;12.59;66.14;97964.03;4497177;31;33411;-87
2023/10/28 04:30:59;;;;;;;5.45;1.60;;;;;;;12.58;66.70;97964.91;4492261;31;34581;-87
2023/10/28 04:33:26;;;;;;;4.55;1.70;;;;;;;12.53;67.23;97971.91;4485911;31;34612;-87
2023/10/28 04:35:54;;;;;;;4.25;1.92;;;;;;;12.57;67.04;97968.38;4481595;31;32861;-86
2023/10/28 04:38:22;;;;;;;4.85;1.70;;;;;;;12.55;67.04;97972.75;4495668;31;34306;-86
2023/10/28 04:40:50;;;;;;;5.20;2.12;;;;;;;12.56;67.17;97973.63;4469817;32;33241;-87
2023/10/28 04:43:19;;;;;;;3.50;1.75;;;;;;;12.48;67.60;97975.47;4471853;31;33304;-86
2023/10/28 04:45:48;;;;;;;6.62;2.28;;;;;;;12.63;67.30;97970.91;4492484;31;32667;-85
2023/10/28 04:48:16;;;;;;;4.10;2.20;;;;;;;12.61;67.27;97967.47;4482497;31;33745;-87
2023/10/28 04:50:45;;;;;;;4.80;2.78;;;;;;;12.59;67.15;97965.78;4497570;31;34376;-87
2023/10/28 04:53:12;;;;;;;7.22;2.92;;;;;;;12.55;67.39;97967.56;4497777;31;33919;-87
2023/10/28 04:55:41;;;;;;;5.07;2.42;;;;;;;12.57;67.52;97970.12;4497686;31;34620;-87
2023/10/28 04:58:09;;;;;;;5.93;3.03;;;;;;;12.47;67.71;97979.81;4491436;31;34016;-85
2023/10/28 05:00:36;;;;;;;6.28;3.37;;;;;;;12.22;67.85;97979.28;4483362;31;33476;-87
2023/10/28 05:03:04;;;;;;;8.68;4.30;;;;;;;12.28;68.15;97973.16;4484685;31;34286;-87
2023/10/28 05:05:32;;;;;;;8.82;5.53;;;;;;;12.41;67.90;97969.50;4498098;31;34565;-86
2023/10/28 05:07:59;;;;;;;8.35;4.15;;;;;;;12.36;69.52;97981.69;4482260;32;33848;-87
2023/10/28 05:10:27;;;;;;;7.03;3.62;;;;;;;11.80;72.04;97980.63;4476209;31;33890;-87
2023/10/28 05:12:59;;;;;;;6.22;3.25;;;;;;;12.03;71.17;97985.56;4497572;31;34064;-87
2023/10/28 05:15:28;;;;;;;8.05;4.28;;;;;;;12.00;70.76;97989.06;4495087;31;33805;-86
2023/10/28 05:17:56;;;;;;;6.10;2.85;;;;;;;12.23;69.97;98001.75;4497952;31;33040;-87
2023/10/28 05:20:24;;;;;;;6.10;2.15;;;;;;;12.31;69.28;97996.47;4498952;31;33520;-86
2023/10/28 05:22:52;;;;;;;4.43;2.20;;;;;;;12.34;68.56;98004.22;4498809;31;33415;-87
2023/10/28 05:25:20;;;;;;;7.53;2.10;;;;;;;12.38;68.20;97998.13;4498964;31;33739;-85
2023/10/28 05:27:49;;;;;;;4.00;1.77;;;;;;;12.47;67.41;98004.94;4484701;31;33144;-87
2023/10/28 05:30:16;;;;;;;3.17;1.50;;;;;;;12.37;67.34;98005.06;4496525;31;33013;-86
2023/10/28 05:32:44;;;;;;;3.50;1.37;;;;;;;12.35;67.42;98006.84;4492993;31;33539;-86
2023/10/28 05:35:13;;;;;;;3.90;1.48;;;;;;;12.36;67.17;98024.12;4497506;31;32333;-86
2023/10/28 05:37:40;;;;;;;3.37;1.87;;;;;;;12.31;67.24;98040.66;4497197;31;34272;-85
2023/10/28 05:40:10;;;;;;;8.90;3.37;;;;;;;12.19;67.90;98046.84;4498433;31;34293;-86
2023/10/28 05:42:37;;;;;;;6.37;4.55;;;;;;;12.08;69.55;98046.12;4499190;31;34937;-85
2023/10/28 05:45:07;;;;;;;8.15;4.15;;;;;;;12.00;70.92;98054.00;4499138;31;34405;-86
2023/10/28 05:47:35;;;;;;;9.95;7.43;;;;;;;12.12;70.83;98056.47;4495530;31;33314;-85
2023/10/28 05:50:05;;;;;;;14.93;9.05;;;;;;;12.21;71.40;98065.91;4485023;31;32601;-86
2023/10/28 05:52:34;;;;;;;14.02;9.55;;;;;;;12.14;72.41;98059.91;4482777;31;33584;-86
2023/10/28 05:55:02;;;;;;;13.50;10.05;;;;;;;12.02;73.57;98075.63;4478700;31;32798;-86
2023/10/28 05:57:30;;;;;;;13.25;10.57;;;;;;;12.02;74.00;98075.63;4484731;31;34042;-87
2023/10/28 05:59:58;;;;;;;13.07;8.80;;;;;;;11.89;75.65;98074.03;4468966;32;33160;-86
2023/10/28 06:02:25;;;;;;;13.62;9.25;;;;;;;12.24;74.15;98086.66;4474439;31;33869;-87
2023/10/28 06:04:53;;;;;;;12.10;9.02;;;;;;;12.31;74.20;98093.50;4491094;31;33855;-87
2023/10/28 06:07:21;;;;;;;14.45;11.38;;;;;;;12.46;73.99;98092.44;4488099;31;34281;-86
2023/10/28 06:09:48;;;;;;;15.98;11.73;;;;;;;12.44;74.63;98093.38;4497659;31;33728;-87
2023/10/28 06:12:16;;;;;;;31.58;12.45;;;;;;;12.62;74.26;98098.34;4481612;31;34798;-85
2023/10/28 06:14:43;;;;;;;28.10;11.70;;;;;;;12.86;73.93;98095.41;4486282;31;33725;-84
2023/10/28 06:17:11;;;;;;;22.52;12.23;;;;;;;12.52;76.29;98107.12;4495800;31;34049;-85
2023/10/28 06:19:42;;;;;;;20.27;9.90;;;;;;;12.67;76.30;98101.75;4487717;31;34606;-86
2023/10/28 06:22:11;;;;;;;16.55;10.30;;;;;;;12.66;76.87;98106.06;4479734;32;33587;-86
2023/10/28 06:24:39;;;;;;;13.45;8.43;;;;;;;12.76;77.00;98117.22;4483318;32;33561;-84
2023/10/28 06:27:08;;;;;;;12.85;9.88;;;;;;;12.72;78.18;98119.88;4491949;31;33873;-85
2023/10/28 06:29:35;;;;;;;11.23;8.98;;;;;;;12.93;77.42;98121.34;4498732;31;34889;-85
2023/10/28 06:32:06;;;;;;;11.43;8.98;;;;;;;12.86;78.04;98116.22;4497919;31;34080;-84
2023/10/28 06:34:33;;;;;;;10.90;8.40;;;;;;;12.84;78.90;98114.50;4492477;31;33539;-85
2023/10/28 06:37:01;;;;;;;10.13;7.50;;;;;;;13.09;78.23;98115.91;4478866;31;33328;-84
2023/10/28 06:39:33;;;;;;;10.00;8.32;;;;;;;13.31;77.56;98118.22;4493154;31;33583;-86
2023/10/28 06:42:01;;;;;;;10.50;8.18;;;;;;;13.05;79.41;98132.44;4481688;32;34090;-85
2023/10/28 06:44:31;;;;;;;11.15;8.65;;;;;;;13.29;78.16;98128.66;4483319;31;33777;-85
2023/10/28 06:46:59;;;;;;;9.93;8.27;;;;;;;13.28;78.49;98131.28;4491392;31;33358;-86
2023/10/28 06:49:26;;;;;;;9.13;7.53;;;;;;;13.39;78.39;98129.38;4481389;31;34602;-87
2023/10/28 06:51:54;;;;;;;9.35;8.32;;;;;;;13.33;78.23;98122.53;4481914;32;32771;-87
2023/10/28 06:54:21;;;;;;;14.13;9.43;;;;;;;13.34;78.17;98134.66;4488111;31;34581;-86
2023/10/28 06:56:49;;;;;;;10.82;9.10;;;;;;;13.38;77.27;98138.09;4497733;31;33383;-86
2023/10/28 06:59:17;;;;;;;11.18;8.63;;;;;;;13.28;77.25;98149.50;4486671;31;34372;-86
2023/10/28 07:01:44;;;;;;;15.30;11.80;;;;;;;13.17;78.10;98148.75;4492644;31;34601;-86
2023/10/28 07:04:12;;;;;;;13.52;10.45;;;;;;;12.90;80.26;98156.06;4484497;31;32280;-86
2023/10/28 07:06:40;;;;;;;13.38;10.23;;;;;;;13.05;78.80;98160.19;4494028;31;34201;-86
2023/10/28 07:09:07;;;;;;;16.35;11.85;;;;;;;12.99;78.86;98161.12;4491795;31;34623;-85
2023/10/28 07:11:35;;;;;;;17.77;11.23;;;;;;;13.18;78.46;98164.34;4493028;31;34214;-87
2023/10/28 07:14:03;;;;;;;11.35;8.60;;;;;;;13.18;78.77;98168.69;4498592;31;33981;-86
2023/10/28 07:16:30;;;;;;;14.05;9.02;;;;;;;13.01;78.95;98175.00;4496643;31;33402;-86
2023/10/28 07:18:58;;;;;;;14.40;8.25;;;;;;;13.34;77.83;98180.66;4481711;32;33860;-87
2023/10/28 07:21:26;;;;;;;12.13;8.30;;;;;;;13.66;76.31;98179.31;4486220;31;34098;-86
2023/10/28 07:23:54;;;;;;;10.50;7.45;;;;;;;13.74;76.12;98190.47;4497017;31;34240;-87
2023/10/28 07:26:22;;;;;;;9.07;6.97;;;;;;;13.77;75.61;98199.09;4482728;32;33251;-87
2023/10/28 07:28:50;;;;;;;9.07;6.97;;;;;;;13.99;74.56;98206.59;4484468;31;34430;-87
2023/10/28 07:31:18;;;;;;;8.82;6.60;;;;;;;14.00;74.19;98210.91;4498839;31;33779;-85
2023/10/28 07:33:46;;;;;;;9.43;7.50;;;;;;;13.92;74.29;98216.25;4499108;31;33857;-86
2023/10/28 07:36:14;;;;;;;9.90;7.47;;;;;;;13.62;75.37;98221.03;4490432;31;34110;-86
2023/10/28 07:38:41;;;;;;;8.75;7.37;;;;;;;13.73;75.61;98223.47;4497901;31;33936;-86
2023/10/28 07:41:09;;;;;;;10.57;7.80;;;;;;;13.52;76.26;98224.66;4483571;31;34796;-84
2023/10/28 07:43:37;;;;;;;9.88;7.35;;;;;;;13.56;77.03;98221.16;4496936;31;33723;-87
2023/10/28 07:46:04;;;;;;;14.93;8.68;;;;;;;13.79;76.90;98206.91;4483250;31;33470;-86
2023/10/28 07:48:32;;;;;;;10.45;7.68;;;;;;;13.97;76.86;98201.38;4483448;31;33494;-86
2023/10/28 07:51:00;;;;;;;11.25;8.50;;;;;;;13.87;77.08;98198.09;4488720;31;34960;-86
2023/10/28 07:53:28;;;;;;;16.08;9.63;;;;;;;13.69;77.71;98213.12;4496060;31;34218;-86
2023/10/28 07:55:56;;;;;;;10.25;7.85;;;;;;;13.76;77.26;98209.56;4487393;31;34160;-85
2023/10/28 07:58:24;;;;;;;12.60;8.20;;;;;;;14.12;76.08;98211.56;4473958;31;33927;-86
2023/10/28 08:00:51;;;;;;;10.68;7.28;;;;;;;14.23;75.41;98207.91;4483292;31;34880;-85
2023/10/28 08:03:19;;;;;;;10.10;7.05;;;;;;;14.29;75.56;98207.81;4490404;31;33180;-85
2023/10/28 08:05:47;;;;;;;12.85;7.80;;;;;;;14.33;75.88;98214.69;4480544;31;33489;-86
2023/10/28 08:08:14;;;;;;;11.38;7.90;;;;;;;14.40;75.98;98218.91;4493604;31;33511;-86
2023/10/28 08:10:42;;;;;;;15.65;10.50;;;;;;;14.44;76.44;98225.81;4484431;31;34201;-86
2023/10/28 08:13:09;;;;;;;12.02;8.55;;;;;;;14.58;76.58;98221.25;4498601;31;33711;-86
2023/10/28 08:15:36;;;;;;;10.10;6.72;;;;;;;14.64;77.13;98219.38;4490563;31;33166;-84
2023/10/28 08:18:04;;;;;;;11.40;7.78;;;;;;;14.86;75.89;98228.53;4491617;31;34566;-86
2023/10/28 08:20:32;;;;;;;9.48;6.93;;;;;;;14.82;75.86;98229.47;4496835;31;33508;-86
2023/10/28 08:23:00;;;;;;;9.23;6.28;;;;;;;15.04;75.33;98241.22;4498764;31;33816;-86
2023/10/28 08:25:28;;;;;;;9.65;6.87;;;;;;;15.22;73.74;98234.75;4497713;31;34120;-86
2023/10/28 08:27:55;;;;;;;9.07;6.10;;;;;;;15.13;74.65;98248.00;4494389;31;33617;-85
2023/10/28 08:30:22;;;;;;;6.75;4.70;;;;;;;15.21;74.77;98243.47;4490428;31;34262;-84
2023/10/28 08:32:52;;;;;;;8.82;5.20;;;;;;;15.38;73.66;98250.09;4490253;31;34899;-87
2023/10/28 08:35:20;;;;;;;8.57;5.30;;;;;;;15.43;73.33;98256.94;4485678;31;32797;-84
2023/10/28 08:37:47;;;;;;;8.15;4.90;;;;;;;15.70;73.10;98252.03;4500050;31;33609;-87
2023/10/28 08:40:15;;;;;;;7.62;5.12;;;;;;;15.84;71.98;98262.19;4498771;31;33751;-86
2023/10/28 08:42:44;;;;;;;7.12;5.12;;;;;;;16.07;71.80;98261.66;4498320;31;33867;-86
2023/10/28 08:45:13;;;;;;;7.80;4.47;;;;;;;16.13;70.92;98269.34;4499959;31;33551;-86
2023/10/28 08:47:42;;;;;;;7.53;4.45;;;;;;;16.28;69.91;98279.44;4484864;31;33162;-86
2023/10/28 08:50:10;;;;;;;8.38;4.87;;;;;;;16.12;70.77;98284.16;4498219;31;34080;-85
2023/10/28 08:52:39;;;;;;;7.30;4.57;;;;;;;16.21;71.00;98272.63;4485418;31;33541;-88
2023/10/28 08:55:10;;;;;;;6.65;4.28;;;;;;;16.40;69.96;98280.88;4485738;31;31707;-86
2023/10/28 08:57:44;;;;;;;6.78;4.10;;;;;;;16.51;69.21;98287.56;4485810;31;34569;-86
2023/10/28 09:00:17;;;;;;;6.87;4.20;;;;;;;16.47;69.84;98283.31;4493779;31;33561;-86
2023/10/28 09:02:46;;;;;;;7.22;3.62;;;;;;;16.36;69.64;98292.31;4490345;31;33046;-86
2023/10/28 09:05:14;;;;;;;5.97;3.72;;;;;;;16.68;67.68;98296.75;4480446;32;34637;-86
2023/10/28 09:07:45;;;;;;;6.45;3.85;;;;;;;16.29;69.23;98299.47;4482630;31;34584;-88
2023/10/28 09:10:15;;;;;;;6.87;3.87;;;;;;;16.53;68.34;98301.47;4483681;32;33784;-87
2023/10/28 09:12:44;;;;;;;6.80;3.97;;;;;;;16.83;68.30;98298.16;4476252;32;33716;-86
2023/10/28 09:15:11;;;;;;;5.60;3.40;;;;;;;16.83;67.60;98299.00;4493751;31;33436;-88
2023/10/28 09:17:40;;;;;;;6.45;3.30;;;;;;;16.65;66.85;98308.16;4499551;31;34362;-88
2023/10/28 09:20:11;;;;;;;4.53;2.22;;;;;;;16.75;66.10;98300.97;4498936;31;34556;-88
2023/10/28 09:22:43;;;;;;;5.12;2.20;;;;;;;16.64;66.14;98311.69;4498042;31;34614;-88
2023/10/28 09:25:14;;;;;;;3.67;2.20;;;;;;;16.45;66.18;98307.81;4498432;31;33304;-87
2023/10/28 09:27:43;;;;;;;4.70;1.85;;;;;;;16.62;66.28;98312.59;4484761;31;34191;-90
2023/10/28 09:30:11;;;;;;;5.30;2.40;;;;;;;16.68;65.71;98313.31;4487496;31;34870;-86
2023/10/28 09:32:39;;;;;;;3.10;1.85;;;;;;;16.79;64.48;98310.47;4482503;32;32918;-90
2023/10/28 09:35:08;;;;;;;3.55;1.83;;;;;;;16.58;65.63;98311.81;4482465;31;33258;-85
2023/10/28 09:37:37;;;;;;;2.92;1.42;;;;;;;16.63;65.80;98314.31;4496228;31;34709;-89
2023/10/28 09:40:07;;;;;;;3.87;1.33;;;;;;;16.67;65.46;98316.00;4482485;31;33074;-88
2023/10/28 09:42:38;;;;;;;3.22;1.00;;;;;;;16.57;66.21;98319.72;4497470;31;34553;-89
2023/10/28 09:45:08;;;;;;;3.20;1.27;;;;;;;16.57;63.83;98314.50;4499397;31;32921;-88
2023/10/28 09:47:48;;;;;;;2.00;0.90;;;;;;;16.83;65.13;98311.25;4499588;31;34958;-89
2023/10/28 09:50:16;;;;;;;3.85;1.17;;;;;;;16.71;62.25;98307.16;4484386;31;34215;-87
2023/10/28 09:52:45;;;;;;;2.08;0.70;;;;;;;16.80;63.09;98317.41;4496829;31;33523;-88
2023/10/28 09:55:15;;;;;;;3.20;0.70;;;;;;;16.60;61.84;98306.56;4483361;31;32355;-84
2023/10/28 09:57:43;;;;;;;1.80;0.62;;;;;;;16.77;61.12;98312.25;4491614;31;33216;-85
2023/10/28 10:00:19;;;;;;;1.92;0.60;;;;;;;16.92;60.54;98297.91;4492646;31;35042;-84
2023/10/28 10:03:12;;;;;;;2.45;1.00;;;;;;;17.33;58.22;98306.38;4485806;31;34401;-85
2023/10/28 10:05:43;;;;;;;2.08;0.70;;;;;;;17.29;60.79;98310.00;4498852;31;33130;-87
2023/10/28 10:08:18;;;;;;;3.03;1.02;;;;;;;17.16;59.62;98302.50;4498113;31;33091;-84
2023/10/28 10:10:47;;;;;;;1.65;0.60;;;;;;;17.09;61.47;98300.94;4498027;31;32820;-87
2023/10/28 10:13:15;;;;;;;1.42;0.85;;;;;;;17.03;59.66;98299.31;4497732;31;34637;-87
2023/10/28 10:15:55;;;;;;;2.15;0.50;;;;;;;16.75;59.62;98299.22;4497967;31;33059;-87
2023/10/28 10:18:38;;;;;;;1.77;0.65;;;;;;;16.97;58.08;98290.75;4497887;31;34625;-86
2023/10/28 10:21:18;;;;;;;4.60;2.30;;;;;;;16.80;60.45;98295.63;4497902;31;33975;-85
2023/10/28 10:23:54;;;;;;;1.67;0.80;;;;;;;17.14;59.26;98295.56;4498054;31;33769;-86
2023/10/28 10:26:26;;;;;;;0.65;0.37;;;;;;;16.70;59.31;98300.19;4485516;31;33105;-85
2023/10/28 10:29:01;;;;;;;2.42;0.88;;;;;;;16.67;59.53;98295.03;4497906;31;34673;-86
2023/10/28 10:31:31;;;;;;;2.33;0.80;;;;;;;16.72;59.82;98287.94;4498175;31;34871;-86
2023/10/28 10:34:09;;;;;;;1.85;0.70;;;;;;;16.62;59.00;98286.44;4497062;31;33117;-85
2023/10/28 10:36:42;;;;;;;4.25;1.98;;;;;;;16.65;59.75;98294.22;4485142;31;33388;-87
2023/10/28 10:39:16;;;;;;;13.05;6.47;;;;;;;16.47;59.92;98303.38;4485546;31;34913;-86
2023/10/28 10:41:53;;;;;;;19.77;11.73;;;;;;;16.64;59.86;98308.22;4497733;31;34113;-85
2023/10/28 10:44:34;;;;;;;4.85;2.05;;;;;;;16.96;59.64;98304.78;4484912;31;33035;-85
2023/10/28 10:47:03;;;;;;;2.75;0.90;;;;;;;17.59;57.75;98313.50;4497698;31;33037;-86
2023/10/28 10:49:35;;;;;;;2.75;0.80;;;;;;;17.74;56.69;98313.06;4497516;31;33602;-85
2023/10/28 10:52:03;;;;;;;1.70;0.82;;;;;;;17.66;56.54;98307.19;4498962;31;33507;-86
2023/10/28 10:54:36;;;;;;;1.15;0.60;;;;;;;17.56;57.57;98300.47;4499089;31;34218;-85
2023/10/28 10:57:08;;;;;;;1.73;0.80;;;;;;;17.70;57.54;98304.41;4499030;31;33107;-86
2023/10/28 10:59:40;;;;;;;1.77;0.80;;;;;;;17.65;57.50;98303.72;4497782;31;33769;-87
2023/10/28 11:02:10;;;;;;;2.85;0.88;;;;;;;17.35;57.48;98297.59;4485045;31;33463;-85
2023/10/28 11:04:42;;;;;;;2.55;0.82;;;;;;;17.45;58.27;98306.03;4484881;31;32941;-86
2023/10/28 11:07:09;;;;;;;2.10;0.80;;;;;;;17.83;57.06;98304.06;4484892;31;32720;-85
2023/10/28 11:09:38;;;;;;;1.92;1.02;;;;;;;17.68;57.35;98305.34;4483758;31;33767;-86
2023/10/28 11:12:06;;;;;;;3.12;1.17;;;;;;;18.03;56.51;98298.22;4497691;31;34859;-86
2023/10/28 11:14:33;;;;;;;5.65;1.58;;;;;;;18.14;56.48;98296.97;4496803;31;34408;-86
2023/10/28 11:17:01;;;;;;;3.87;1.30;;;;;;;18.07;57.29;98291.97;4498523;31;33115;-85
2023/10/28 11:19:29;;;;;;;2.22;0.80;;;;;;;17.94;58.36;98287.09;4489709;31;33703;-84
2023/10/28 11:21:56;;;;;;;1.95;0.90;;;;;;;17.84;56.98;98282.19;4472886;31;34337;-85
2023/10/28 11:24:24;;;;;;;2.75;0.80;;;;;;;17.93;56.14;98285.41;4498023;31;34385;-86
2023/10/28 11:26:55;;;;;;;1.73;0.62;;;;;;;18.13;56.18;98289.16;4497967;31;33411;-85
2023/10/28 11:29:23;;;;;;;1.02;0.50;;;;;;;18.27;56.03;98281.72;4497081;31;33604;-86
2023/10/28 11:31:50;;;;;;;0.50;0.40;;;;;;;18.30;52.38;98271.13;4496658;31;34830;-84
2023/10/28 11:34:18;;;;;;;1.67;0.45;;;;;;;18.15;52.56;98284.72;4498346;31;33678;-85
2023/10/28 11:36:45;;;;;;;2.60;0.60;;;;;;;17.80;53.25;98284.03;4498586;31;33544;-84
2023/10/28 11:39:15;;;;;;;2.67;0.50;;;;;;;18.01;54.36;98289.56;4497033;31;33105;-88